Aviation Digital Data Service (ADDS)

Output produced by METARs form (2226 UTC 02 August 2015)
found at http://aviationweather.gov/adds/metars/
 
KMSS 021727Z 0218/0318 23010G16KT P6SM FEW045 SCT150 
     FM030000 21008KT P6SM SCT120 BKN250 
     FM030500 21012KT P6SM VCSH BKN060 BKN120 WS020/23040KT 
     FM031200 22014G24KT P6SM VCSH BKN060 BKN100 
     FM031400 23018G30KT P6SM -SHRA BKN040